Time;durP1;ratioP1;P1;durP2;ratioP2;P2;SDS_P1;SDS_P2;PMS_P1;PMS_P2;Temp;Humidity;BMP_temperature;BMP_pressure;BME280_temperature;BME280_humidity;BME280_pressure;Samples;Min_cycle;Max_cycle;Signal;HPM_P1;HPM_P2
2023/01/30 00:01:34;;;;;;;39.15;21.27;;;-1.00;99.90;;;;;;495862;239;27578;-75
2023/01/30 00:03:36;;;;;;;39.50;21.48;;;-1.00;99.90;;;;;;495879;239;27367;-76
2023/01/30 00:05:37;;;;;;;33.60;19.95;;;-1.00;99.90;;;;;;495861;239;27479;-75
2023/01/30 00:07:38;;;;;;;36.60;20.12;;;-1.00;99.90;;;;;;495895;239;28085;-76
2023/01/30 00:09:40;;;;;;;39.63;20.60;;;-1.00;99.90;;;;;;495883;239;29070;-76
2023/01/30 00:11:41;;;;;;;37.88;20.83;;;-1.00;99.90;;;;;;495916;239;27487;-75
2023/01/30 00:13:42;;;;;;;36.67;20.45;;;-1.10;99.90;;;;;;495904;239;27352;-76
2023/01/30 00:15:43;;;;;;;38.22;20.92;;;-1.10;99.90;;;;;;495873;239;27350;-75
2023/01/30 00:17:45;;;;;;;33.03;19.73;;;-1.10;99.90;;;;;;495904;239;27590;-76
2023/01/30 00:19:46;;;;;;;42.42;22.48;;;-1.00;99.90;;;;;;495896;239;27352;-75
2023/01/30 00:21:47;;;;;;;41.15;23.70;;;-1.10;99.90;;;;;;495878;239;27976;-75
2023/01/30 00:23:48;;;;;;;41.75;23.50;;;-1.10;99.90;;;;;;495874;239;27395;-75
2023/01/30 00:25:50;;;;;;;35.97;20.95;;;-1.10;99.90;;;;;;495882;239;27460;-75
2023/01/30 00:27:51;;;;;;;45.25;24.23;;;-1.10;99.90;;;;;;495873;239;27566;-75
2023/01/30 00:29:52;;;;;;;41.50;22.62;;;-1.00;99.90;;;;;;495857;239;27361;-74
2023/01/30 00:31:53;;;;;;;40.85;22.92;;;-1.00;99.90;;;;;;495874;239;27391;-74
2023/01/30 00:33:55;;;;;;;38.70;21.90;;;-1.10;99.90;;;;;;495848;239;28625;-75
2023/01/30 00:35:56;;;;;;;44.97;23.87;;;-1.10;99.90;;;;;;495879;239;27905;-75
2023/01/30 00:37:57;;;;;;;39.10;20.90;;;-1.00;99.90;;;;;;495652;239;27400;-78
2023/01/30 00:39:58;;;;;;;38.38;22.52;;;-1.10;99.90;;;;;;495873;239;27458;-75
2023/01/30 00:48:58;;;;;;;41.63;22.08;;;-1.10;99.90;;;;;;495872;239;27506;-75
2023/01/30 00:50:59;;;;;;;37.30;21.95;;;-1.10;99.90;;;;;;495876;239;27483;-75
2023/01/30 00:53:00;;;;;;;41.58;23.10;;;-1.10;99.90;;;;;;495855;239;27384;-75
2023/01/30 00:55:02;;;;;;;45.35;23.42;;;-1.10;99.90;;;;;;495870;239;27383;-75
2023/01/30 00:57:03;;;;;;;40.65;22.37;;;-1.10;99.90;;;;;;495815;239;27955;-75
2023/01/30 00:59:04;;;;;;;48.05;24.58;;;-1.10;99.90;;;;;;495858;239;27488;-75
2023/01/30 01:01:05;;;;;;;41.28;22.83;;;-1.10;99.90;;;;;;495866;239;27487;-75
2023/01/30 01:03:07;;;;;;;42.90;23.92;;;-1.10;99.90;;;;;;495851;239;27369;-75
2023/01/30 01:05:08;;;;;;;40.92;22.15;;;-1.10;99.90;;;;;;495871;239;27471;-75
2023/01/30 01:07:09;;;;;;;41.47;21.90;;;-1.10;99.90;;;;;;495855;239;27400;-75
2023/01/30 01:09:10;;;;;;;41.47;22.90;;;-1.10;99.90;;;;;;495856;239;27973;-76
2023/01/30 01:11:23;;;;;;;36.15;21.23;;;-1.10;99.90;;;;;;495876;239;28665;-74
2023/01/30 01:13:13;;;;;;;42.20;21.83;;;-1.10;99.90;;;;;;495131;239;27365;-74
2023/01/30 01:15:14;;;;;;;40.72;22.92;;;-1.00;99.90;;;;;;495868;239;27479;-75
2023/01/30 01:17:15;;;;;;;45.17;22.50;;;-1.10;99.90;;;;;;495859;239;27407;-75
2023/01/30 01:19:17;;;;;;;43.90;23.62;;;-1.10;99.90;;;;;;495880;239;27527;-76
2023/01/30 01:21:18;;;;;;;41.90;23.92;;;-1.10;99.90;;;;;;495845;239;27899;-75
2023/01/30 01:23:19;;;;;;;39.63;23.27;;;-1.10;99.90;;;;;;495847;239;28958;-74
2023/01/30 01:25:20;;;;;;;42.38;22.48;;;-1.20;99.90;;;;;;495870;239;27450;-75
2023/01/30 01:27:22;;;;;;;46.20;25.02;;;-1.20;99.90;;;;;;495885;239;27420;-75
2023/01/30 01:29:23;;;;;;;43.33;23.90;;;-1.10;99.90;;;;;;495874;239;27453;-76
2023/01/30 01:31:24;;;;;;;43.30;23.10;;;-1.00;99.90;;;;;;495887;239;27347;-76
2023/01/30 01:33:25;;;;;;;45.33;25.27;;;-1.00;99.90;;;;;;495879;239;27511;-75
2023/01/30 01:35:27;;;;;;;46.03;24.23;;;-1.10;99.90;;;;;;495885;239;29071;-75
2023/01/30 01:37:28;;;;;;;47.47;23.90;;;-1.10;99.90;;;;;;495877;239;27422;-75
2023/01/30 01:41:00;;;;;;;44.83;22.83;;;-1.10;99.90;;;;;;495873;239;27523;-76
2023/01/30 01:41:31;;;;;;;38.08;21.67;;;-1.20;99.90;;;;;;494523;240;27441;-75
2023/01/30 01:43:32;;;;;;;44.08;22.37;;;-1.10;99.90;;;;;;495869;239;27593;-76
2023/01/30 01:45:33;;;;;;;40.47;22.73;;;-1.10;99.90;;;;;;495887;239;27528;-75
2023/01/30 01:47:34;;;;;;;41.25;22.67;;;-1.10;99.90;;;;;;495896;239;28088;-76
2023/01/30 01:49:36;;;;;;;37.88;20.80;;;-1.10;99.90;;;;;;495891;239;27976;-76
2023/01/30 01:51:37;;;;;;;40.63;21.08;;;-1.10;99.90;;;;;;495876;239;27440;-76
2023/01/30 01:53:38;;;;;;;44.67;24.83;;;-1.00;99.90;;;;;;495876;239;27446;-76
2023/01/30 01:55:39;;;;;;;41.05;21.98;;;-1.00;99.90;;;;;;495884;239;27930;-75
2023/01/30 01:57:41;;;;;;;42.22;22.73;;;-1.00;99.90;;;;;;495870;239;27545;-75
2023/01/30 01:59:42;;;;;;;42.00;22.45;;;-1.10;99.90;;;;;;495875;239;27923;-76
2023/01/30 02:01:43;;;;;;;46.30;24.12;;;-1.10;99.90;;;;;;495900;239;27923;-75
2023/01/30 02:03:44;;;;;;;40.25;22.33;;;-1.10;99.90;;;;;;495836;239;27376;-74
2023/01/30 02:05:46;;;;;;;44.83;22.85;;;-1.10;99.90;;;;;;495883;239;27487;-76
2023/01/30 02:07:47;;;;;;;41.70;22.87;;;-1.10;99.90;;;;;;495888;239;27566;-75
2023/01/30 02:09:48;;;;;;;54.85;24.95;;;-1.00;99.90;;;;;;495900;239;27497;-74
2023/01/30 02:11:49;;;;;;;46.42;25.10;;;-1.10;99.90;;;;;;495890;239;27900;-74
2023/01/30 02:13:51;;;;;;;49.70;25.58;;;-1.10;99.90;;;;;;495872;239;29043;-76
2023/01/30 02:15:52;;;;;;;48.03;24.75;;;-1.10;99.90;;;;;;495882;239;27468;-76
2023/01/30 02:17:53;;;;;;;45.40;24.98;;;-1.10;99.90;;;;;;495896;239;27541;-76
2023/01/30 02:19:54;;;;;;;44.95;23.85;;;-1.20;99.90;;;;;;495882;239;27507;-76
2023/01/30 02:21:56;;;;;;;45.80;23.42;;;-1.10;99.90;;;;;;495891;239;27528;-75
2023/01/30 02:23:57;;;;;;;54.65;25.48;;;-1.10;99.90;;;;;;495857;239;27585;-76
2023/01/30 02:25:58;;;;;;;52.03;24.42;;;-1.10;99.90;;;;;;495892;239;28088;-76
2023/01/30 02:27:59;;;;;;;47.85;25.85;;;-1.00;99.90;;;;;;495875;239;27958;-74
2023/01/30 02:30:01;;;;;;;52.28;26.70;;;-1.00;99.90;;;;;;495788;239;27574;-75
2023/01/30 02:32:02;;;;;;;46.75;25.10;;;-1.00;99.90;;;;;;495866;239;27468;-75
2023/01/30 02:34:03;;;;;;;45.72;25.35;;;-1.00;99.90;;;;;;495839;239;27367;-75
2023/01/30 02:36:05;;;;;;;51.30;26.25;;;-1.00;99.90;;;;;;495894;239;27576;-75
2023/01/30 02:38:06;;;;;;;51.53;25.17;;;-1.00;99.90;;;;;;495892;239;28031;-75
2023/01/30 02:40:07;;;;;;;47.25;26.50;;;-1.00;99.90;;;;;;495880;239;29158;-75
2023/01/30 02:42:08;;;;;;;45.80;24.87;;;-1.10;99.90;;;;;;495873;239;27511;-75
2023/01/30 02:44:10;;;;;;;50.22;25.80;;;-1.10;99.90;;;;;;495855;239;27408;-76
2023/01/30 02:46:11;;;;;;;49.10;25.40;;;-1.10;99.90;;;;;;495879;239;27577;-74
2023/01/30 02:48:12;;;;;;;51.65;26.48;;;-1.10;99.90;;;;;;495912;239;27527;-75
2023/01/30 02:50:13;;;;;;;53.42;25.80;;;-1.00;99.90;;;;;;495928;239;27903;-75
2023/01/30 02:52:15;;;;;;;45.83;23.40;;;-1.10;99.90;;;;;;495887;239;27915;-75
2023/01/30 02:54:16;;;;;;;47.22;24.75;;;-1.10;99.90;;;;;;495897;239;27490;-74
2023/01/30 02:56:17;;;;;;;46.67;24.65;;;-1.10;99.90;;;;;;495918;239;27436;-77
2023/01/30 02:58:18;;;;;;;43.17;23.83;;;-1.10;99.90;;;;;;495907;239;27448;-74
2023/01/30 03:00:20;;;;;;;49.53;25.35;;;-1.00;99.90;;;;;;495887;239;27518;-74
2023/01/30 03:02:21;;;;;;;51.17;26.05;;;-1.00;99.90;;;;;;495880;239;27557;-75
2023/01/30 03:04:26;;;;;;;59.90;27.37;;;-1.10;99.90;;;;;;495862;239;28074;-75
2023/01/30 03:06:23;;;;;;;53.72;25.75;;;-1.10;99.90;;;;;;495650;239;27412;-74
2023/01/30 03:08:25;;;;;;;51.10;25.10;;;-1.10;99.90;;;;;;495884;239;27459;-74
2023/01/30 03:10:26;;;;;;;57.10;26.58;;;-1.00;99.90;;;;;;495873;239;27578;-75
2023/01/30 03:12:27;;;;;;;55.15;26.95;;;-1.00;99.90;;;;;;495674;239;27554;-75
2023/01/30 03:14:28;;;;;;;54.25;25.73;;;-1.10;99.90;;;;;;495878;239;27588;-75
2023/01/30 03:16:30;;;;;;;53.08;25.77;;;-1.10;99.90;;;;;;495901;239;28072;-80
2023/01/30 03:18:31;;;;;;;40.25;22.23;;;-1.00;99.90;;;;;;495883;239;27942;-76
2023/01/30 03:20:33;;;;;;;48.08;24.55;;;-0.90;99.90;;;;;;495884;239;27439;-76
2023/01/30 03:22:34;;;;;;;48.63;24.55;;;-1.00;99.90;;;;;;495869;239;27429;-76
2023/01/30 03:24:35;;;;;;;51.53;24.30;;;-1.00;99.90;;;;;;495855;239;27586;-75
2023/01/30 03:26:36;;;;;;;48.92;23.80;;;-1.00;99.90;;;;;;495836;239;27491;-77
2023/01/30 03:28:37;;;;;;;51.90;24.80;;;-1.00;99.90;;;;;;495879;239;27813;-75
2023/01/30 03:30:39;;;;;;;47.78;23.90;;;-1.00;99.90;;;;;;495880;239;28743;-76
2023/01/30 03:32:40;;;;;;;53.00;24.20;;;-1.00;99.90;;;;;;495873;239;27384;-75
2023/01/30 03:34:41;;;;;;;51.95;24.02;;;-1.00;99.90;;;;;;495897;239;27496;-75
2023/01/30 03:36:42;;;;;;;48.60;24.30;;;-1.00;99.90;;;;;;495882;239;27387;-75
2023/01/30 03:38:44;;;;;;;53.90;24.98;;;-1.00;99.90;;;;;;495881;239;27773;-74
2023/01/30 03:40:45;;;;;;;52.25;24.33;;;-1.00;99.90;;;;;;495850;239;27395;-75
2023/01/30 03:42:46;;;;;;;43.72;22.55;;;-1.00;99.90;;;;;;495873;239;28047;-75
2023/01/30 03:44:47;;;;;;;47.13;23.90;;;-1.00;99.90;;;;;;495846;239;27392;-75
2023/01/30 03:46:49;;;;;;;48.53;23.80;;;-1.00;99.90;;;;;;495896;239;27574;-76
2023/01/30 03:48:50;;;;;;;48.50;23.62;;;-0.90;99.90;;;;;;495885;239;27507;-76
2023/01/30 03:50:51;;;;;;;53.97;25.33;;;-0.90;99.90;;;;;;495868;239;27404;-75
2023/01/30 03:52:52;;;;;;;46.55;21.92;;;-0.90;99.90;;;;;;495879;239;27444;-76
2023/01/30 03:54:54;;;;;;;47.28;23.45;;;-0.90;99.90;;;;;;495841;239;27966;-76
2023/01/30 03:56:55;;;;;;;46.37;23.70;;;-0.90;99.90;;;;;;495870;239;28100;-76
2023/01/30 03:58:56;;;;;;;40.65;22.00;;;-1.00;99.90;;;;;;495820;239;27366;-75
2023/01/30 04:00:57;;;;;;;45.67;23.80;;;-1.00;99.90;;;;;;495770;239;27491;-76
2023/01/30 04:02:59;;;;;;;48.28;25.02;;;-1.00;99.90;;;;;;495764;239;27546;-75
2023/01/30 04:05:00;;;;;;;53.10;25.88;;;-1.00;99.90;;;;;;495792;239;27413;-75
2023/01/30 04:07:01;;;;;;;50.42;24.45;;;-1.00;99.90;;;;;;495848;239;27866;-76
2023/01/30 04:09:02;;;;;;;51.55;24.50;;;-1.00;99.90;;;;;;495843;239;27919;-76
2023/01/30 04:11:04;;;;;;;49.45;24.10;;;-0.90;99.90;;;;;;495848;239;27526;-76
2023/01/30 04:13:05;;;;;;;46.42;23.42;;;-0.90;99.90;;;;;;495832;239;27436;-75
2023/01/30 04:15:06;;;;;;;42.35;20.85;;;-0.80;99.90;;;;;;495822;239;27384;-76
2023/01/30 04:17:08;;;;;;;45.45;22.65;;;-0.80;99.90;;;;;;495862;239;27847;-75
2023/01/30 04:19:09;;;;;;;43.85;22.00;;;-0.80;99.90;;;;;;495900;239;27809;-76
2023/01/30 04:21:10;;;;;;;46.35;22.62;;;-0.70;99.90;;;;;;495893;239;27878;-75
2023/01/30 04:23:11;;;;;;;43.97;21.70;;;-0.80;99.90;;;;;;495781;239;27348;-74
2023/01/30 04:25:13;;;;;;;51.63;23.40;;;-0.80;99.90;;;;;;495839;239;27476;-74
2023/01/30 04:27:14;;;;;;;41.08;20.62;;;-0.70;99.90;;;;;;495869;239;27538;-76
2023/01/30 04:29:15;;;;;;;44.10;21.87;;;-0.80;99.90;;;;;;495869;239;27460;-75
2023/01/30 04:31:16;;;;;;;38.80;21.02;;;-0.80;99.90;;;;;;495868;239;27400;-75
2023/01/30 04:33:18;;;;;;;36.22;19.67;;;-0.70;99.90;;;;;;495866;239;27841;-76
2023/01/30 04:35:19;;;;;;;39.30;20.20;;;-0.70;99.90;;;;;;495872;239;28088;-75
2023/01/30 04:37:20;;;;;;;42.62;21.25;;;-0.70;99.90;;;;;;495888;239;27511;-75
2023/01/30 04:39:21;;;;;;;34.17;18.30;;;-0.70;99.90;;;;;;495862;239;27440;-74
2023/01/30 04:41:23;;;;;;;34.65;18.75;;;-0.60;99.90;;;;;;495884;239;27491;-75
2023/01/30 04:43:24;;;;;;;35.13;17.92;;;-0.60;99.90;;;;;;495868;239;27447;-75
2023/01/30 04:45:25;;;;;;;33.65;18.35;;;-0.60;99.90;;;;;;495839;239;27851;-75
2023/01/30 04:47:26;;;;;;;35.17;18.25;;;-0.60;99.90;;;;;;495855;239;29184;-75
2023/01/30 04:49:28;;;;;;;33.70;19.35;;;-0.60;99.90;;;;;;495865;239;27431;-75
2023/01/30 04:51:29;;;;;;;37.20;19.48;;;-0.60;99.90;;;;;;495879;239;27484;-76
2023/01/30 04:53:30;;;;;;;39.45;19.23;;;-0.60;99.90;;;;;;495837;239;27562;-76
2023/01/30 04:55:31;;;;;;;33.33;18.67;;;-0.60;99.90;;;;;;495833;239;27491;-76
2023/01/30 04:57:33;;;;;;;39.42;19.33;;;-0.60;99.90;;;;;;495862;239;27962;-77
2023/01/30 04:59:34;;;;;;;35.10;18.58;;;-0.60;99.90;;;;;;495864;239;29086;-75
2023/01/30 05:01:35;;;;;;;34.15;19.02;;;-0.60;99.90;;;;;;495855;239;27495;-75
2023/01/30 05:03:36;;;;;;;35.58;19.05;;;-0.60;99.90;;;;;;495891;239;27352;-76
2023/01/30 05:05:38;;;;;;;34.80;18.65;;;-0.50;99.90;;;;;;495844;239;27400;-74
2023/01/30 05:07:39;;;;;;;36.80;18.12;;;-0.50;99.90;;;;;;495870;239;27873;-77
2023/01/30 05:09:40;;;;;;;29.10;16.35;;;-0.60;99.90;;;;;;495855;239;27566;-75
2023/01/30 05:11:42;;;;;;;35.95;19.20;;;-0.50;99.90;;;;;;495861;239;27850;-76
2023/01/30 05:13:43;;;;;;;35.35;19.05;;;-0.50;99.90;;;;;;495866;239;29082;-74
2023/01/30 05:15:44;;;;;;;34.55;19.48;;;-0.50;99.90;;;;;;495873;239;27503;-76
2023/01/30 05:17:45;;;;;;;36.13;19.17;;;-0.50;99.90;;;;;;495801;239;27517;-74
2023/01/30 05:19:47;;;;;;;33.88;18.23;;;-0.50;99.90;;;;;;495889;239;27458;-75
2023/01/30 05:21:48;;;;;;;38.15;19.45;;;-0.50;99.90;;;;;;495903;239;27487;-76
2023/01/30 05:23:49;;;;;;;37.75;19.35;;;-0.60;99.90;;;;;;495896;239;27881;-76
2023/01/30 05:25:50;;;;;;;44.08;20.23;;;-0.50;99.90;;;;;;495869;239;27918;-75
2023/01/30 05:27:52;;;;;;;37.30;18.15;;;-0.60;99.90;;;;;;495904;239;27617;-75
2023/01/30 05:29:53;;;;;;;38.10;20.75;;;-0.60;99.90;;;;;;495915;239;27444;-76
2023/01/30 05:31:54;;;;;;;40.65;19.60;;;-0.60;99.90;;;;;;495924;239;27473;-75
2023/01/30 05:33:55;;;;;;;35.03;19.37;;;-0.50;99.90;;;;;;495915;239;27462;-76
2023/01/30 05:35:57;;;;;;;38.78;19.60;;;-0.50;99.90;;;;;;495886;239;27895;-75
2023/01/30 05:37:58;;;;;;;37.85;18.35;;;-0.50;99.90;;;;;;495907;239;27982;-75
2023/01/30 05:39:59;;;;;;;36.63;19.95;;;-0.50;99.90;;;;;;495884;239;27408;-75
2023/01/30 05:42:00;;;;;;;35.67;19.52;;;-0.50;99.90;;;;;;495866;239;27401;-76
2023/01/30 05:44:02;;;;;;;35.78;19.48;;;-0.50;99.90;;;;;;495833;239;27422;-75
2023/01/30 05:46:03;;;;;;;34.90;18.67;;;-0.50;99.90;;;;;;495815;239;27384;-75
2023/01/30 05:48:04;;;;;;;40.38;20.75;;;-0.50;99.90;;;;;;495861;239;27500;-75
2023/01/30 05:50:05;;;;;;;39.05;20.02;;;-0.50;99.90;;;;;;495893;239;28096;-76
2023/01/30 05:52:07;;;;;;;37.50;19.58;;;-0.50;99.90;;;;;;495888;239;27956;-76
2023/01/30 05:54:08;;;;;;;32.22;16.77;;;-0.40;99.90;;;;;;495889;239;27436;-74
2023/01/30 05:56:09;;;;;;;45.53;20.08;;;-0.40;99.90;;;;;;495883;239;27484;-76
2023/01/30 05:58:11;;;;;;;41.20;19.60;;;-0.50;99.90;;;;;;495899;239;27860;-75
2023/01/30 06:00:12;;;;;;;38.33;19.83;;;-0.50;99.90;;;;;;495869;239;27460;-76
2023/01/30 06:02:13;;;;;;;39.60;20.48;;;-0.40;99.90;;;;;;495888;239;27934;-76
2023/01/30 06:04:14;;;;;;;35.65;17.98;;;-0.40;99.90;;;;;;495868;239;28973;-75
2023/01/30 06:06:16;;;;;;;40.40;21.08;;;-0.40;99.90;;;;;;495872;239;27396;-74
2023/01/30 06:08:17;;;;;;;39.10;19.40;;;-0.40;99.90;;;;;;495874;239;27579;-76
2023/01/30 06:10:18;;;;;;;35.85;19.37;;;-0.40;99.90;;;;;;495891;239;27530;-75
2023/01/30 06:12:19;;;;;;;38.40;19.77;;;-0.40;99.90;;;;;;495890;239;27484;-75
2023/01/30 06:14:21;;;;;;;40.85;20.55;;;-0.40;99.90;;;;;;495874;239;28003;-75
2023/01/30 06:16:22;;;;;;;43.65;22.30;;;-0.40;99.90;;;;;;495887;239;29242;-76
2023/01/30 06:18:23;;;;;;;39.85;20.65;;;-0.40;99.90;;;;;;495882;239;27576;-75
2023/01/30 06:20:24;;;;;;;32.75;17.92;;;-0.30;99.90;;;;;;495884;239;27454;-75
2023/01/30 06:22:26;;;;;;;33.83;19.10;;;-0.30;99.90;;;;;;495887;239;27485;-76
2023/01/30 06:24:27;;;;;;;40.28;20.83;;;-0.30;99.90;;;;;;495895;239;27555;-74
2023/01/30 06:26:28;;;;;;;42.55;20.70;;;-0.20;99.90;;;;;;495877;239;27503;-76
2023/01/30 06:28:29;;;;;;;38.17;20.50;;;-0.30;99.90;;;;;;495893;239;28632;-75
2023/01/30 06:30:31;;;;;;;36.90;20.27;;;-0.30;99.90;;;;;;495871;239;27606;-75
2023/01/30 06:32:32;;;;;;;37.70;19.73;;;-0.30;99.90;;;;;;495882;239;27491;-76
2023/01/30 06:34:33;;;;;;;42.17;21.20;;;-0.30;99.90;;;;;;495882;239;27524;-76
2023/01/30 06:36:34;;;;;;;39.65;19.70;;;-0.30;99.90;;;;;;495885;239;27511;-77
2023/01/30 06:38:36;;;;;;;41.20;22.02;;;-0.30;99.90;;;;;;495922;239;27539;-76
2023/01/30 06:40:37;;;;;;;39.28;21.12;;;-0.30;99.90;;;;;;495879;239;27995;-75
2023/01/30 06:42:38;;;;;;;37.40;20.92;;;-0.30;99.90;;;;;;495895;239;27970;-77
2023/01/30 06:44:39;;;;;;;39.78;21.90;;;-0.30;99.90;;;;;;495912;239;27558;-75
2023/01/30 06:46:41;;;;;;;40.83;21.37;;;-0.30;99.90;;;;;;495697;239;27511;-76
2023/01/30 06:48:42;;;;;;;43.87;22.40;;;-0.30;99.90;;;;;;495888;239;27444;-75
2023/01/30 06:50:43;;;;;;;36.72;21.15;;;-0.30;99.90;;;;;;495848;239;27380;-75
2023/01/30 06:52:45;;;;;;;46.13;22.00;;;-0.40;99.90;;;;;;495881;239;27931;-76
2023/01/30 06:54:46;;;;;;;41.25;21.17;;;-0.40;99.90;;;;;;495876;239;27980;-75
2023/01/30 06:56:47;;;;;;;46.05;22.05;;;-0.40;99.90;;;;;;495887;239;27482;-75
2023/01/30 06:58:48;;;;;;;42.25;22.52;;;-0.40;99.90;;;;;;495872;239;27448;-75
2023/01/30 07:00:50;;;;;;;45.30;22.15;;;-0.40;99.90;;;;;;495889;239;27865;-76
2023/01/30 07:02:51;;;;;;;36.53;19.83;;;-0.30;99.90;;;;;;495884;239;27963;-74
2023/01/30 07:04:52;;;;;;;50.53;22.48;;;-0.30;99.90;;;;;;495886;239;27458;-74
2023/01/30 07:06:53;;;;;;;36.95;20.77;;;-0.30;99.90;;;;;;495848;239;28005;-75
2023/01/30 07:08:57;;;;;;;41.53;22.40;;;-0.30;99.90;;;;;;495871;239;27460;-76
2023/01/30 07:10:56;;;;;;;40.20;20.40;;;-0.30;99.90;;;;;;495740;239;27487;-75
2023/01/30 07:12:57;;;;;;;40.92;20.77;;;-0.30;99.90;;;;;;495890;239;27485;-76
2023/01/30 07:14:58;;;;;;;41.03;22.00;;;-0.20;99.90;;;;;;495868;239;27565;-75
2023/01/30 07:17:00;;;;;;;42.45;21.17;;;-0.30;99.90;;;;;;495881;239;27566;-74
2023/01/30 07:19:01;;;;;;;47.05;21.70;;;-0.20;99.90;;;;;;495889;239;28035;-75
2023/01/30 07:21:02;;;;;;;40.05;21.25;;;-0.20;99.90;;;;;;495877;239;28061;-75
2023/01/30 07:23:03;;;;;;;44.80;22.65;;;-0.20;99.90;;;;;;495860;239;27555;-76
2023/01/30 07:25:05;;;;;;;47.65;21.77;;;-0.20;99.90;;;;;;495772;239;27440;-76
2023/01/30 07:27:06;;;;;;;39.33;20.67;;;-0.20;99.90;;;;;;495844;239;27424;-76
2023/01/30 07:29:07;;;;;;;32.65;19.00;;;-0.20;99.90;;;;;;495817;239;27539;-73
2023/01/30 07:31:09;;;;;;;39.40;21.20;;;-0.10;99.90;;;;;;495877;239;27955;-74
2023/01/30 07:33:10;;;;;;;38.63;20.17;;;-0.10;99.90;;;;;;495835;239;29129;-75
2023/01/30 07:35:11;;;;;;;34.67;18.42;;;-0.10;99.90;;;;;;495855;239;27498;-74
2023/01/30 07:37:12;;;;;;;36.70;19.12;;;-0.10;99.90;;;;;;495880;239;27488;-75
2023/01/30 07:39:13;;;;;;;36.28;16.92;;;-0.10;99.90;;;;;;495857;239;27440;-75
2023/01/30 07:41:15;;;;;;;30.45;17.60;;;-0.10;99.90;;;;;;495866;239;27464;-74
2023/01/30 07:43:16;;;;;;;31.62;17.73;;;-0.10;99.90;;;;;;495852;239;27479;-75
2023/01/30 07:45:18;;;;;;;29.67;17.02;;;-0.10;99.90;;;;;;495874;239;27816;-75
2023/01/30 07:47:19;;;;;;;35.30;17.00;;;-0.10;99.90;;;;;;495875;239;27512;-76
2023/01/30 07:49:20;;;;;;;32.13;17.55;;;-0.10;99.90;;;;;;495881;239;27448;-76
2023/01/30 07:51:21;;;;;;;30.50;16.85;;;-0.10;99.90;;;;;;495893;239;27516;-75
2023/01/30 07:53:22;;;;;;;34.72;18.52;;;-0.10;99.90;;;;;;495893;239;27479;-77
2023/01/30 07:55:24;;;;;;;28.77;15.05;;;-0.10;99.90;;;;;;495889;239;27466;-74
2023/01/30 07:57:25;;;;;;;33.65;17.67;;;-0.10;99.90;;;;;;495894;239;27939;-76
2023/01/30 07:59:26;;;;;;;32.00;17.25;;;-0.10;99.90;;;;;;495891;239;27918;-75
2023/01/30 08:01:27;;;;;;;33.75;17.25;;;-0.10;99.90;;;;;;495883;239;27464;-74
2023/01/30 08:03:29;;;;;;;36.28;17.10;;;-0.10;99.90;;;;;;495884;239;27488;-75
2023/01/30 08:05:30;;;;;;;31.37;17.15;;;0.00;99.90;;;;;;495842;239;27440;-75
2023/01/30 08:07:31;;;;;;;36.85;17.37;;;0.00;99.90;;;;;;495863;239;27415;-76
2023/01/30 08:09:32;;;;;;;30.20;17.02;;;0.00;99.90;;;;;;495855;239;27455;-75
2023/01/30 08:11:34;;;;;;;30.00;16.92;;;0.10;99.90;;;;;;495860;239;27986;-77
2023/01/30 08:13:35;;;;;;;33.38;18.17;;;0.10;99.90;;;;;;495872;239;27935;-75
2023/01/30 08:15:36;;;;;;;29.27;16.77;;;0.10;99.90;;;;;;495861;239;27460;-76
2023/01/30 08:17:37;;;;;;;28.62;17.00;;;0.10;99.90;;;;;;495873;239;27385;-75
2023/01/30 08:19:39;;;;;;;29.12;17.00;;;0.10;99.90;;;;;;495849;239;27348;-76
2023/01/30 08:21:40;;;;;;;35.63;18.42;;;0.10;99.90;;;;;;495879;239;27427;-75
2023/01/30 08:23:41;;;;;;;36.00;18.70;;;0.20;99.90;;;;;;495873;239;27411;-75
2023/01/30 08:25:42;;;;;;;29.90;17.55;;;0.20;99.90;;;;;;495850;239;27439;-75
2023/01/30 08:27:44;;;;;;;31.33;16.95;;;0.20;99.90;;;;;;495850;239;28138;-75
2023/01/30 08:29:45;;;;;;;29.17;16.37;;;0.30;99.90;;;;;;495850;239;27998;-75
2023/01/30 08:31:46;;;;;;;27.35;16.65;;;0.30;99.90;;;;;;495897;239;27383;-76
2023/01/30 08:33:47;;;;;;;29.12;16.08;;;0.30;99.90;;;;;;495859;239;27473;-76
2023/01/30 08:35:49;;;;;;;26.50;15.65;;;0.40;99.90;;;;;;495868;239;27535;-76
2023/01/30 08:37:50;;;;;;;21.98;13.90;;;0.30;99.90;;;;;;495886;239;27483;-75
2023/01/30 08:39:51;;;;;;;25.77;15.50;;;0.40;99.90;;;;;;495876;239;27487;-76
2023/01/30 08:41:52;;;;;;;26.98;14.13;;;0.40;99.90;;;;;;495861;239;27879;-75
2023/01/30 08:43:54;;;;;;;26.02;15.40;;;0.40;99.90;;;;;;495874;239;28005;-76
2023/01/30 08:45:55;;;;;;;28.58;15.13;;;0.50;99.90;;;;;;495872;239;27357;-76
2023/01/30 08:47:56;;;;;;;27.25;15.63;;;0.50;99.90;;;;;;495845;239;27399;-76
2023/01/30 08:49:58;;;;;;;28.48;15.60;;;0.50;99.90;;;;;;495870;239;27515;-75
2023/01/30 08:51:59;;;;;;;27.60;15.55;;;0.50;99.90;;;;;;495869;239;27456;-75
2023/01/30 08:54:00;;;;;;;26.20;14.68;;;0.50;99.90;;;;;;495824;239;27450;-75
2023/01/30 08:56:01;;;;;;;22.40;13.70;;;0.50;99.90;;;;;;495854;239;27511;-75
2023/01/30 08:58:03;;;;;;;22.80;13.75;;;0.50;99.90;;;;;;495849;239;27879;-77
2023/01/30 09:00:04;;;;;;;22.73;13.45;;;0.60;99.90;;;;;;495782;239;27815;-75
2023/01/30 09:02:05;;;;;;;18.55;12.07;;;0.60;99.90;;;;;;495851;239;27360;-76
2023/01/30 09:04:06;;;;;;;20.42;13.15;;;0.50;99.90;;;;;;495842;239;27487;-77
2023/01/30 09:06:08;;;;;;;20.00;13.07;;;0.50;99.90;;;;;;495842;239;27443;-74
2023/01/30 09:08:09;;;;;;;22.00;13.27;;;0.50;99.90;;;;;;495855;239;27570;-75
2023/01/30 09:10:10;;;;;;;19.40;13.05;;;0.60;99.90;;;;;;495862;239;27360;-75
2023/01/30 09:12:11;;;;;;;21.90;13.57;;;0.60;99.90;;;;;;495850;239;27483;-75
2023/01/30 09:14:13;;;;;;;20.90;13.20;;;0.70;99.90;;;;;;495870;239;27971;-75
2023/01/30 09:16:14;;;;;;;18.90;12.32;;;0.60;99.90;;;;;;495868;239;27907;-75
2023/01/30 09:18:15;;;;;;;20.62;12.80;;;0.70;99.90;;;;;;495877;239;27380;-76
2023/01/30 09:20:19;;;;;;;17.77;11.68;;;0.70;99.90;;;;;;495884;239;27444;-76
2023/01/30 09:22:18;;;;;;;20.45;13.05;;;0.70;99.90;;;;;;495727;239;27387;-75
2023/01/30 09:24:19;;;;;;;17.60;12.23;;;0.80;99.90;;;;;;495895;239;27554;-76
2023/01/30 09:26:20;;;;;;;20.27;12.50;;;0.80;99.90;;;;;;495902;239;27460;-75
2023/01/30 09:28:21;;;;;;;21.15;12.50;;;0.80;99.90;;;;;;495872;239;27487;-75
2023/01/30 09:30:23;;;;;;;19.30;12.75;;;0.80;99.90;;;;;;495877;239;28578;-74
2023/01/30 09:32:24;;;;;;;20.20;12.18;;;0.70;99.90;;;;;;495850;239;27900;-76
2023/01/30 09:34:27;;;;;;;20.02;12.45;;;0.70;99.90;;;;;;495864;239;27388;-75
2023/01/30 09:36:26;;;;;;;18.87;11.75;;;0.70;99.90;;;;;;495764;240;27504;-76
2023/01/30 09:38:28;;;;;;;15.70;10.52;;;0.80;99.90;;;;;;495855;239;27484;-75
2023/01/30 09:40:29;;;;;;;18.02;12.05;;;0.80;99.90;;;;;;495859;239;27449;-75
2023/01/30 09:42:30;;;;;;;17.95;12.35;;;0.80;99.90;;;;;;495640;239;27450;-75
2023/01/30 09:44:31;;;;;;;17.67;11.50;;;0.80;99.90;;;;;;495859;239;27917;-75
2023/01/30 09:46:33;;;;;;;19.30;11.38;;;0.80;99.90;;;;;;495777;239;27922;-75
2023/01/30 09:48:34;;;;;;;19.02;11.57;;;0.90;99.90;;;;;;495843;239;27945;-75
2023/01/30 09:50:35;;;;;;;17.33;11.48;;;0.90;99.90;;;;;;495863;239;27380;-76
2023/01/30 09:52:36;;;;;;;17.77;10.93;;;0.90;99.90;;;;;;495837;239;27352;-75
2023/01/30 09:54:38;;;;;;;17.15;11.65;;;0.90;99.90;;;;;;495821;239;27396;-77
2023/01/30 09:56:39;;;;;;;15.77;10.45;;;1.00;99.90;;;;;;495861;239;27464;-75
2023/01/30 09:58:40;;;;;;;18.17;11.80;;;1.00;99.90;;;;;;495857;239;27489;-74
2023/01/30 10:00:42;;;;;;;18.27;11.02;;;1.00;99.90;;;;;;495865;239;27935;-76
2023/01/30 10:02:43;;;;;;;18.65;10.75;;;1.10;99.90;;;;;;495814;239;27926;-76
2023/01/30 10:04:44;;;;;;;15.68;10.88;;;1.10;99.90;;;;;;495890;239;27478;-76
2023/01/30 10:06:45;;;;;;;14.52;10.57;;;1.10;99.90;;;;;;495863;239;27447;-75
2023/01/30 10:08:47;;;;;;;13.02;9.02;;;1.30;99.90;;;;;;495864;239;27487;-75
2023/01/30 10:10:48;;;;;;;12.88;8.75;;;1.40;99.90;;;;;;495904;239;27550;-74
2023/01/30 10:12:49;;;;;;;13.57;9.43;;;1.40;99.90;;;;;;495885;239;27503;-75
2023/01/30 10:14:50;;;;;;;13.32;8.57;;;1.50;99.90;;;;;;495875;239;27609;-75
2023/01/30 10:16:53;;;;;;;13.93;9.45;;;1.50;99.90;;;;;;495863;239;27504;-75
2023/01/30 10:18:53;;;;;;;13.40;8.65;;;1.50;99.90;;;;;;495824;239;27965;-77
2023/01/30 10:20:54;;;;;;;11.80;8.10;;;1.50;99.90;;;;;;495875;239;27926;-75
2023/01/30 10:22:55;;;;;;;11.48;8.00;;;1.50;99.90;;;;;;495897;239;27966;-76
2023/01/30 10:24:57;;;;;;;12.37;8.93;;;1.40;99.90;;;;;;495858;239;27483;-78